sensor_id;sensor_type;location;lat;lon;timestamp;temperature;humidity
4896;DHT22;2463;49.948;8.472;2023-01-09T00:00:22;9.50;99.90
4896;DHT22;2463;49.948;8.472;2023-01-09T00:02:49;9.50;99.90
4896;DHT22;2463;49.948;8.472;2023-01-09T00:05:17;9.50;99.90
4896;DHT22;2463;49.948;8.472;2023-01-09T00:07:43;9.40;99.90
4896;DHT22;2463;49.948;8.472;2023-01-09T00:10:11;9.50;99.90
4896;DHT22;2463;49.948;8.472;2023-01-09T00:12:38;9.50;99.90
4896;DHT22;2463;49.948;8.472;2023-01-09T00:15:05;9.40;99.90
4896;DHT22;2463;49.948;8.472;2023-01-09T00:17:32;9.40;99.90
4896;DHT22;2463;49.948;8.472;2023-01-09T00:19:58;9.40;99.90
4896;DHT22;2463;49.948;8.472;2023-01-09T00:22:25;9.40;99.90
4896;DHT22;2463;49.948;8.472;2023-01-09T00:24:51;9.40;99.90
4896;DHT22;2463;49.948;8.472;2023-01-09T00:27:18;9.30;99.90
4896;DHT22;2463;49.948;8.472;2023-01-09T00:29:45;9.40;99.90
4896;DHT22;2463;49.948;8.472;2023-01-09T00:32:13;9.30;99.90
4896;DHT22;2463;49.948;8.472;2023-01-09T00:34:39;9.10;99.90
4896;DHT22;2463;49.948;8.472;2023-01-09T00:37:08;9.40;99.90
4896;DHT22;2463;49.948;8.472;2023-01-09T00:39:40;9.30;99.90
4896;DHT22;2463;49.948;8.472;2023-01-09T00:42:11;9.30;99.90
4896;DHT22;2463;49.948;8.472;2023-01-09T00:44:57;9.30;99.90
4896;DHT22;2463;49.948;8.472;2023-01-09T00:47:32;9.40;99.90
4896;DHT22;2463;49.948;8.472;2023-01-09T00:50:07;9.40;99.90
4896;DHT22;2463;49.948;8.472;2023-01-09T00:52:36;9.40;99.90
4896;DHT22;2463;49.948;8.472;2023-01-09T00:55:03;9.40;99.90
4896;DHT22;2463;49.948;8.472;2023-01-09T00:57:31;9.30;99.90
4896;DHT22;2463;49.948;8.472;2023-01-09T00:59:58;9.30;99.90
4896;DHT22;2463;49.948;8.472;2023-01-09T01:02:25;9.30;99.90
4896;DHT22;2463;49.948;8.472;2023-01-09T01:04:53;9.40;99.90
4896;DHT22;2463;49.948;8.472;2023-01-09T01:07:38;9.30;99.90
4896;DHT22;2463;49.948;8.472;2023-01-09T01:10:17;9.30;99.90
4896;DHT22;2463;49.948;8.472;2023-01-09T01:12:46;9.30;99.90
4896;DHT22;2463;49.948;8.472;2023-01-09T01:15:14;9.40;99.90
4896;DHT22;2463;49.948;8.472;2023-01-09T01:17:41;9.30;99.90
4896;DHT22;2463;49.948;8.472;2023-01-09T01:20:11;9.30;99.90
4896;DHT22;2463;49.948;8.472;2023-01-09T01:22:38;9.30;99.90
4896;DHT22;2463;49.948;8.472;2023-01-09T01:25:08;9.30;99.90
4896;DHT22;2463;49.948;8.472;2023-01-09T01:27:35;9.40;99.90
4896;DHT22;2463;49.948;8.472;2023-01-09T01:30:02;9.40;99.90
4896;DHT22;2463;49.948;8.472;2023-01-09T01:32:29;9.30;99.90
4896;DHT22;2463;49.948;8.472;2023-01-09T01:34:56;9.40;99.90
4896;DHT22;2463;49.948;8.472;2023-01-09T01:37:22;9.40;99.90
4896;DHT22;2463;49.948;8.472;2023-01-09T01:39:50;9.40;99.90
4896;DHT22;2463;49.948;8.472;2023-01-09T01:42:17;9.40;99.90
4896;DHT22;2463;49.948;8.472;2023-01-09T01:45:07;9.40;99.90
4896;DHT22;2463;49.948;8.472;2023-01-09T01:50:16;9.40;99.90
4896;DHT22;2463;49.948;8.472;2023-01-09T01:52:47;9.50;99.90
4896;DHT22;2463;49.948;8.472;2023-01-09T01:55:16;9.50;99.90
4896;DHT22;2463;49.948;8.472;2023-01-09T01:57:47;9.50;99.90
4896;DHT22;2463;49.948;8.472;2023-01-09T02:00:15;9.50;99.90
4896;DHT22;2463;49.948;8.472;2023-01-09T02:02:42;9.50;99.90
4896;DHT22;2463;49.948;8.472;2023-01-09T02:05:11;9.50;99.90
4896;DHT22;2463;49.948;8.472;2023-01-09T02:07:38;9.50;99.90
4896;DHT22;2463;49.948;8.472;2023-01-09T02:10:05;9.50;99.90
4896;DHT22;2463;49.948;8.472;2023-01-09T02:12:31;9.50;99.90
4896;DHT22;2463;49.948;8.472;2023-01-09T02:15:07;9.50;99.90
4896;DHT22;2463;49.948;8.472;2023-01-09T02:17:42;9.50;99.90
4896;DHT22;2463;49.948;8.472;2023-01-09T02:34:40;9.40;99.90
4896;DHT22;2463;49.948;8.472;2023-01-09T02:42:28;9.30;99.90
4896;DHT22;2463;49.948;8.472;2023-01-09T02:44:55;9.20;99.90
4896;DHT22;2463;49.948;8.472;2023-01-09T02:49:52;9.10;99.90
4896;DHT22;2463;49.948;8.472;2023-01-09T02:52:52;9.10;99.90
4896;DHT22;2463;49.948;8.472;2023-01-09T02:55:44;9.10;99.90
4896;DHT22;2463;49.948;8.472;2023-01-09T03:04:08;8.90;99.90
4896;DHT22;2463;49.948;8.472;2023-01-09T03:06:57;9.00;99.90
4896;DHT22;2463;49.948;8.472;2023-01-09T03:09:28;9.00;99.90
4896;DHT22;2463;49.948;8.472;2023-01-09T03:12:21;9.00;99.90
4896;DHT22;2463;49.948;8.472;2023-01-09T03:14:52;9.00;99.90
4896;DHT22;2463;49.948;8.472;2023-01-09T03:17:34;9.00;99.90
4896;DHT22;2463;49.948;8.472;2023-01-09T03:20:04;9.00;99.90
4896;DHT22;2463;49.948;8.472;2023-01-09T03:22:32;9.00;99.90
4896;DHT22;2463;49.948;8.472;2023-01-09T03:24:58;8.90;99.90
4896;DHT22;2463;49.948;8.472;2023-01-09T03:27:25;8.90;99.90
4896;DHT22;2463;49.948;8.472;2023-01-09T03:29:52;8.90;99.90
4896;DHT22;2463;49.948;8.472;2023-01-09T03:32:19;9.00;99.90
4896;DHT22;2463;49.948;8.472;2023-01-09T03:34:45;8.90;99.90
4896;DHT22;2463;49.948;8.472;2023-01-09T03:37:12;9.00;99.90
4896;DHT22;2463;49.948;8.472;2023-01-09T03:39:39;9.00;99.90
4896;DHT22;2463;49.948;8.472;2023-01-09T03:42:06;8.90;99.90
4896;DHT22;2463;49.948;8.472;2023-01-09T03:44:32;8.90;99.90
4896;DHT22;2463;49.948;8.472;2023-01-09T03:46:59;8.90;99.90
4896;DHT22;2463;49.948;8.472;2023-01-09T03:49:26;8.90;99.90
4896;DHT22;2463;49.948;8.472;2023-01-09T03:51:52;8.90;99.90
4896;DHT22;2463;49.948;8.472;2023-01-09T03:54:19;9.00;99.90
4896;DHT22;2463;49.948;8.472;2023-01-09T03:56:45;8.90;99.90
4896;DHT22;2463;49.948;8.472;2023-01-09T03:59:12;8.90;99.90
4896;DHT22;2463;49.948;8.472;2023-01-09T04:01:39;8.90;99.90
4896;DHT22;2463;49.948;8.472;2023-01-09T04:04:06;8.80;99.90
4896;DHT22;2463;49.948;8.472;2023-01-09T04:06:32;8.80;99.90
4896;DHT22;2463;49.948;8.472;2023-01-09T04:08:59;8.80;99.90
4896;DHT22;2463;49.948;8.472;2023-01-09T04:11:26;8.70;99.90
4896;DHT22;2463;49.948;8.472;2023-01-09T04:13:52;8.70;99.90
4896;DHT22;2463;49.948;8.472;2023-01-09T04:16:19;8.70;99.90
4896;DHT22;2463;49.948;8.472;2023-01-09T04:18:45;8.70;99.90
4896;DHT22;2463;49.948;8.472;2023-01-09T04:21:12;8.60;99.90
4896;DHT22;2463;49.948;8.472;2023-01-09T04:23:39;8.70;99.90
4896;DHT22;2463;49.948;8.472;2023-01-09T04:26:06;8.60;99.90
4896;DHT22;2463;49.948;8.472;2023-01-09T04:28:33;8.60;99.90
4896;DHT22;2463;49.948;8.472;2023-01-09T04:31:00;8.70;99.90
4896;DHT22;2463;49.948;8.472;2023-01-09T04:33:28;8.70;99.90
4896;DHT22;2463;49.948;8.472;2023-01-09T04:35:54;8.60;99.90
4896;DHT22;2463;49.948;8.472;2023-01-09T04:38:21;8.70;99.90
4896;DHT22;2463;49.948;8.472;2023-01-09T04:40:48;8.70;99.90
4896;DHT22;2463;49.948;8.472;2023-01-09T04:43:15;8.60;99.90
4896;DHT22;2463;49.948;8.472;2023-01-09T04:45:42;8.70;99.90
4896;DHT22;2463;49.948;8.472;2023-01-09T04:48:08;8.70;99.90
4896;DHT22;2463;49.948;8.472;2023-01-09T04:50:35;8.60;99.90
4896;DHT22;2463;49.948;8.472;2023-01-09T04:53:02;8.70;99.90
4896;DHT22;2463;49.948;8.472;2023-01-09T04:55:28;8.60;99.90
4896;DHT22;2463;49.948;8.472;2023-01-09T04:57:55;8.60;99.90
4896;DHT22;2463;49.948;8.472;2023-01-09T05:00:22;8.60;99.90
4896;DHT22;2463;49.948;8.472;2023-01-09T05:02:49;8.60;99.90
4896;DHT22;2463;49.948;8.472;2023-01-09T05:05:16;8.60;99.90
4896;DHT22;2463;49.948;8.472;2023-01-09T05:07:42;8.60;99.90
4896;DHT22;2463;49.948;8.472;2023-01-09T05:10:10;8.60;99.90
4896;DHT22;2463;49.948;8.472;2023-01-09T05:12:37;8.60;99.90
4896;DHT22;2463;49.948;8.472;2023-01-09T05:15:06;8.60;99.90
4896;DHT22;2463;49.948;8.472;2023-01-09T05:17:33;8.60;99.90
4896;DHT22;2463;49.948;8.472;2023-01-09T05:20:00;8.60;99.90
4896;DHT22;2463;49.948;8.472;2023-01-09T05:22:27;8.50;99.90
4896;DHT22;2463;49.948;8.472;2023-01-09T05:24:53;8.50;99.90
4896;DHT22;2463;49.948;8.472;2023-01-09T05:27:20;8.40;99.90
4896;DHT22;2463;49.948;8.472;2023-01-09T05:29:47;8.30;99.90
4896;DHT22;2463;49.948;8.472;2023-01-09T05:32:13;8.30;99.90
4896;DHT22;2463;49.948;8.472;2023-01-09T05:34:40;8.20;99.90
4896;DHT22;2463;49.948;8.472;2023-01-09T05:37:07;8.20;99.90
4896;DHT22;2463;49.948;8.472;2023-01-09T05:39:33;8.20;99.90
4896;DHT22;2463;49.948;8.472;2023-01-09T05:42:00;8.20;99.90
4896;DHT22;2463;49.948;8.472;2023-01-09T05:44:27;8.10;99.90
4896;DHT22;2463;49.948;8.472;2023-01-09T05:46:53;8.10;99.90
4896;DHT22;2463;49.948;8.472;2023-01-09T05:49:20;8.00;99.90
4896;DHT22;2463;49.948;8.472;2023-01-09T05:51:46;8.00;99.90
4896;DHT22;2463;49.948;8.472;2023-01-09T05:54:13;8.00;99.90
4896;DHT22;2463;49.948;8.472;2023-01-09T05:56:40;7.90;99.90
4896;DHT22;2463;49.948;8.472;2023-01-09T05:59:08;7.90;99.90
4896;DHT22;2463;49.948;8.472;2023-01-09T06:01:34;7.80;99.90
4896;DHT22;2463;49.948;8.472;2023-01-09T06:04:01;7.80;99.90
4896;DHT22;2463;49.948;8.472;2023-01-09T06:06:28;7.70;99.90
4896;DHT22;2463;49.948;8.472;2023-01-09T06:08:54;7.70;99.90
4896;DHT22;2463;49.948;8.472;2023-01-09T06:11:21;7.60;99.90
4896;DHT22;2463;49.948;8.472;2023-01-09T06:13:48;7.60;99.90
4896;DHT22;2463;49.948;8.472;2023-01-09T06:16:14;7.70;99.90
4896;DHT22;2463;49.948;8.472;2023-01-09T06:18:41;7.80;99.90
4896;DHT22;2463;49.948;8.472;2023-01-09T06:21:08;7.80;99.90
4896;DHT22;2463;49.948;8.472;2023-01-09T06:23:34;7.80;99.90
4896;DHT22;2463;49.948;8.472;2023-01-09T06:26:01;7.80;99.90
4896;DHT22;2463;49.948;8.472;2023-01-09T06:28:28;7.80;99.90
4896;DHT22;2463;49.948;8.472;2023-01-09T06:30:54;7.70;99.90
4896;DHT22;2463;49.948;8.472;2023-01-09T06:33:21;7.60;99.90
4896;DHT22;2463;49.948;8.472;2023-01-09T06:35:48;7.60;99.90
4896;DHT22;2463;49.948;8.472;2023-01-09T06:38:15;7.50;99.90
4896;DHT22;2463;49.948;8.472;2023-01-09T06:40:41;7.50;99.90
4896;DHT22;2463;49.948;8.472;2023-01-09T06:43:08;7.40;99.90
4896;DHT22;2463;49.948;8.472;2023-01-09T06:45:35;7.40;99.90
4896;DHT22;2463;49.948;8.472;2023-01-09T06:48:02;7.50;99.90
4896;DHT22;2463;49.948;8.472;2023-01-09T06:50:28;7.50;99.90
4896;DHT22;2463;49.948;8.472;2023-01-09T06:52:55;7.50;99.90
4896;DHT22;2463;49.948;8.472;2023-01-09T06:55:22;7.50;99.90
4896;DHT22;2463;49.948;8.472;2023-01-09T06:57:48;7.50;99.90
4896;DHT22;2463;49.948;8.472;2023-01-09T07:00:15;7.60;99.90
4896;DHT22;2463;49.948;8.472;2023-01-09T07:02:42;7.60;99.90
4896;DHT22;2463;49.948;8.472;2023-01-09T07:05:09;7.60;99.90
4896;DHT22;2463;49.948;8.472;2023-01-09T07:07:38;7.70;99.90
4896;DHT22;2463;49.948;8.472;2023-01-09T07:10:06;7.70;99.90
4896;DHT22;2463;49.948;8.472;2023-01-09T07:12:33;7.80;99.90
4896;DHT22;2463;49.948;8.472;2023-01-09T07:15:00;7.70;99.90
4896;DHT22;2463;49.948;8.472;2023-01-09T07:17:27;7.80;99.90
4896;DHT22;2463;49.948;8.472;2023-01-09T07:19:53;7.70;99.90
4896;DHT22;2463;49.948;8.472;2023-01-09T07:22:20;7.70;99.90
4896;DHT22;2463;49.948;8.472;2023-01-09T07:24:47;7.70;99.90
4896;DHT22;2463;49.948;8.472;2023-01-09T07:27:13;7.70;99.90
4896;DHT22;2463;49.948;8.472;2023-01-09T07:29:40;7.70;99.90
4896;DHT22;2463;49.948;8.472;2023-01-09T07:32:07;7.60;99.90
4896;DHT22;2463;49.948;8.472;2023-01-09T07:34:34;7.60;99.90
4896;DHT22;2463;49.948;8.472;2023-01-09T07:37:00;7.60;99.90
4896;DHT22;2463;49.948;8.472;2023-01-09T07:39:27;7.60;99.90
4896;DHT22;2463;49.948;8.472;2023-01-09T07:41:54;7.70;99.90
4896;DHT22;2463;49.948;8.472;2023-01-09T07:44:20;7.70;99.90
4896;DHT22;2463;49.948;8.472;2023-01-09T07:46:47;7.80;99.90
4896;DHT22;2463;49.948;8.472;2023-01-09T07:49:14;7.80;99.90
4896;DHT22;2463;49.948;8.472;2023-01-09T07:51:40;7.90;99.90
4896;DHT22;2463;49.948;8.472;2023-01-09T07:54:09;7.90;99.90
4896;DHT22;2463;49.948;8.472;2023-01-09T07:56:36;7.90;99.90
4896;DHT22;2463;49.948;8.472;2023-01-09T07:59:03;8.00;99.90
4896;DHT22;2463;49.948;8.472;2023-01-09T08:01:30;8.10;99.90
4896;DHT22;2463;49.948;8.472;2023-01-09T08:03:56;8.20;99.90
4896;DHT22;2463;49.948;8.472;2023-01-09T08:06:23;8.30;99.90
4896;DHT22;2463;49.948;8.472;2023-01-09T08:08:50;8.30;99.90
4896;DHT22;2463;49.948;8.472;2023-01-09T08:11:17;8.40;99.90
4896;DHT22;2463;49.948;8.472;2023-01-09T08:13:43;8.40;99.90
4896;DHT22;2463;49.948;8.472;2023-01-09T08:16:10;8.40;99.90
4896;DHT22;2463;49.948;8.472;2023-01-09T08:18:37;8.50;99.90
4896;DHT22;2463;49.948;8.472;2023-01-09T08:21:03;8.50;99.90
4896;DHT22;2463;49.948;8.472;2023-01-09T08:23:30;8.40;99.90
4896;DHT22;2463;49.948;8.472;2023-01-09T08:25:57;8.40;99.90
4896;DHT22;2463;49.948;8.472;2023-01-09T08:28:23;8.40;99.90
4896;DHT22;2463;49.948;8.472;2023-01-09T08:30:50;8.30;99.90
4896;DHT22;2463;49.948;8.472;2023-01-09T08:33:17;8.40;99.90
4896;DHT22;2463;49.948;8.472;2023-01-09T08:35:44;8.40;99.90
4896;DHT22;2463;49.948;8.472;2023-01-09T08:38:10;8.30;99.90
4896;DHT22;2463;49.948;8.472;2023-01-09T08:40:37;8.40;99.90
4896;DHT22;2463;49.948;8.472;2023-01-09T08:43:04;8.40;99.90
4896;DHT22;2463;49.948;8.472;2023-01-09T08:45:50;8.30;99.90
4896;DHT22;2463;49.948;8.472;2023-01-09T08:48:35;8.30;99.90
4896;DHT22;2463;49.948;8.472;2023-01-09T08:51:02;8.30;99.90
4896;DHT22;2463;49.948;8.472;2023-01-09T08:53:28;8.20;99.90
4896;DHT22;2463;49.948;8.472;2023-01-09T08:55:56;8.20;99.90
4896;DHT22;2463;49.948;8.472;2023-01-09T08:58:23;8.20;99.90
4896;DHT22;2463;49.948;8.472;2023-01-09T09:00:50;8.10;99.90
4896;DHT22;2463;49.948;8.472;2023-01-09T09:03:16;8.10;99.90
4896;DHT22;2463;49.948;8.472;2023-01-09T09:05:43;8.00;99.90
4896;DHT22;2463;49.948;8.472;2023-01-09T09:08:12;8.10;99.90
4896;DHT22;2463;49.948;8.472;2023-01-09T09:10:39;8.10;99.90
4896;DHT22;2463;49.948;8.472;2023-01-09T09:13:05;8.10;99.90
4896;DHT22;2463;49.948;8.472;2023-01-09T09:15:32;8.20;99.90
4896;DHT22;2463;49.948;8.472;2023-01-09T09:18:02;8.20;99.90
4896;DHT22;2463;49.948;8.472;2023-01-09T09:20:31;8.20;99.90
4896;DHT22;2463;49.948;8.472;2023-01-09T09:22:58;8.10;99.90
4896;DHT22;2463;49.948;8.472;2023-01-09T09:25:25;8.10;99.90
4896;DHT22;2463;49.948;8.472;2023-01-09T09:27:52;8.10;99.90
4896;DHT22;2463;49.948;8.472;2023-01-09T09:30:21;8.10;99.90
4896;DHT22;2463;49.948;8.472;2023-01-09T09:32:49;8.10;99.90
4896;DHT22;2463;49.948;8.472;2023-01-09T09:35:16;8.10;99.90
4896;DHT22;2463;49.948;8.472;2023-01-09T09:37:57;8.00;99.90
4896;DHT22;2463;49.948;8.472;2023-01-09T09:40:36;8.00;99.90
4896;DHT22;2463;49.948;8.472;2023-01-09T09:48:54;7.90;99.90
4896;DHT22;2463;49.948;8.472;2023-01-09T09:51:55;7.90;99.90
4896;DHT22;2463;49.948;8.472;2023-01-09T09:54:47;8.00;99.90
4896;DHT22;2463;49.948;8.472;2023-01-09T09:57:17;8.00;99.90
4896;DHT22;2463;49.948;8.472;2023-01-09T09:59:46;8.00;99.90
4896;DHT22;2463;49.948;8.472;2023-01-09T10:02:40;8.10;99.90
4896;DHT22;2463;49.948;8.472;2023-01-09T10:05:18;8.10;99.90
4896;DHT22;2463;49.948;8.472;2023-01-09T10:07:48;8.10;99.90
4896;DHT22;2463;49.948;8.472;2023-01-09T10:10:35;8.20;99.90
4896;DHT22;2463;49.948;8.472;2023-01-09T10:13:03;8.10;99.90
4896;DHT22;2463;49.948;8.472;2023-01-09T10:24:31;8.30;99.90
4896;DHT22;2463;49.948;8.472;2023-01-09T10:27:06;8.30;99.90
4896;DHT22;2463;49.948;8.472;2023-01-09T10:38:21;8.70;99.90
4896;DHT22;2463;49.948;8.472;2023-01-09T10:44:28;8.70;99.90
4896;DHT22;2463;49.948;8.472;2023-01-09T10:46:42;8.60;99.90
4896;DHT22;2463;49.948;8.472;2023-01-09T10:49:15;8.60;99.90
4896;DHT22;2463;49.948;8.472;2023-01-09T10:51:45;8.70;99.90
4896;DHT22;2463;49.948;8.472;2023-01-09T10:54:14;8.70;99.90
4896;DHT22;2463;49.948;8.472;2023-01-09T10:56:45;8.60;99.90
4896;DHT22;2463;49.948;8.472;2023-01-09T10:59:13;8.60;99.90
4896;DHT22;2463;49.948;8.472;2023-01-09T11:01:40;8.60;99.90
4896;DHT22;2463;49.948;8.472;2023-01-09T11:04:23;8.60;99.90
4896;DHT22;2463;49.948;8.472;2023-01-09T11:06:58;8.60;99.90
4896;DHT22;2463;49.948;8.472;2023-01-09T11:09:25;8.70;99.90
4896;DHT22;2463;49.948;8.472;2023-01-09T11:11:52;8.70;99.90
4896;DHT22;2463;49.948;8.472;2023-01-09T11:16:55;8.70;99.90
4896;DHT22;2463;49.948;8.472;2023-01-09T11:19:23;8.80;99.90
4896;DHT22;2463;49.948;8.472;2023-01-09T11:22:06;8.90;99.90
4896;DHT22;2463;49.948;8.472;2023-01-09T11:24:33;8.90;99.90
4896;DHT22;2463;49.948;8.472;2023-01-09T11:29:38;9.10;99.90
4896;DHT22;2463;49.948;8.472;2023-01-09T11:32:22;9.10;99.90
4896;DHT22;2463;49.948;8.472;2023-01-09T11:34:49;9.00;99.90
4896;DHT22;2463;49.948;8.472;2023-01-09T11:37:25;9.00;99.90
4896;DHT22;2463;49.948;8.472;2023-01-09T11:39:53;9.00;99.90
4896;DHT22;2463;49.948;8.472;2023-01-09T11:42:25;9.00;99.90
4896;DHT22;2463;49.948;8.472;2023-01-09T11:45:14;9.10;99.90
4896;DHT22;2463;49.948;8.472;2023-01-09T11:47:42;9.20;99.90
4896;DHT22;2463;49.948;8.472;2023-01-09T11:50:21;9.20;99.90
4896;DHT22;2463;49.948;8.472;2023-01-09T11:53:16;9.30;99.90
4896;DHT22;2463;49.948;8.472;2023-01-09T11:55:44;9.30;99.90
4896;DHT22;2463;49.948;8.472;2023-01-09T11:58:17;9.20;99.90
4896;DHT22;2463;49.948;8.472;2023-01-09T12:06:20;9.10;99.90
4896;DHT22;2463;49.948;8.472;2023-01-09T12:21:24;9.10;99.90
4896;DHT22;2463;49.948;8.472;2023-01-09T12:24:34;9.10;99.90
4896;DHT22;2463;49.948;8.472;2023-01-09T12:27:24;9.20;99.90
4896;DHT22;2463;49.948;8.472;2023-01-09T12:36:13;9.30;99.90
4896;DHT22;2463;49.948;8.472;2023-01-09T12:39:10;9.30;99.90
4896;DHT22;2463;49.948;8.472;2023-01-09T12:41:46;9.30;99.90
4896;DHT22;2463;49.948;8.472;2023-01-09T12:47:55;9.20;99.90
4896;DHT22;2463;49.948;8.472;2023-01-09T12:52:35;9.20;99.90
4896;DHT22;2463;49.948;8.472;2023-01-09T12:55:24;9.20;99.90
4896;DHT22;2463;49.948;8.472;2023-01-09T12:57:54;9.20;99.90
4896;DHT22;2463;49.948;8.472;2023-01-09T13:00:36;9.20;99.90
4896;DHT22;2463;49.948;8.472;2023-01-09T13:03:25;9.20;99.90
4896;DHT22;2463;49.948;8.472;2023-01-09T13:05:55;9.30;99.90
4896;DHT22;2463;49.948;8.472;2023-01-09T13:08:38;9.30;99.90
4896;DHT22;2463;49.948;8.472;2023-01-09T13:11:16;9.30;99.90
4896;DHT22;2463;49.948;8.472;2023-01-09T13:14:05;9.30;99.90
4896;DHT22;2463;49.948;8.472;2023-01-09T13:16:39;9.50;99.90
4896;DHT22;2463;49.948;8.472;2023-01-09T13:19:16;9.70;99.90
4896;DHT22;2463;49.948;8.472;2023-01-09T13:21:44;9.80;99.90
4896;DHT22;2463;49.948;8.472;2023-01-09T13:24:19;9.90;99.90
4896;DHT22;2463;49.948;8.472;2023-01-09T13:26:57;10.00;99.90
4896;DHT22;2463;49.948;8.472;2023-01-09T13:29:28;10.10;99.90
4896;DHT22;2463;49.948;8.472;2023-01-09T13:32:36;10.10;99.90
4896;DHT22;2463;49.948;8.472;2023-01-09T13:35:04;10.20;99.90
4896;DHT22;2463;49.948;8.472;2023-01-09T13:37:33;10.30;99.90
4896;DHT22;2463;49.948;8.472;2023-01-09T13:40:06;10.70;99.90
4896;DHT22;2463;49.948;8.472;2023-01-09T13:43:01;11.70;99.90
4896;DHT22;2463;49.948;8.472;2023-01-09T13:45:33;12.30;99.90
4896;DHT22;2463;49.948;8.472;2023-01-09T13:50:37;11.40;99.90
4896;DHT22;2463;49.948;8.472;2023-01-09T13:56:04;10.60;99.90
4896;DHT22;2463;49.948;8.472;2023-01-09T13:58:57;10.20;99.90
4896;DHT22;2463;49.948;8.472;2023-01-09T14:06:40;9.50;99.90
4896;DHT22;2463;49.948;8.472;2023-01-09T14:09:21;9.40;99.90
4896;DHT22;2463;49.948;8.472;2023-01-09T14:12:03;9.30;99.90
4896;DHT22;2463;49.948;8.472;2023-01-09T14:14:32;9.20;99.90
4896;DHT22;2463;49.948;8.472;2023-01-09T14:17:00;9.10;99.90
4896;DHT22;2463;49.948;8.472;2023-01-09T14:19:35;9.10;99.90
4896;DHT22;2463;49.948;8.472;2023-01-09T14:22:04;9.10;99.90
4896;DHT22;2463;49.948;8.472;2023-01-09T14:24:39;9.10;99.90
4896;DHT22;2463;49.948;8.472;2023-01-09T14:35:42;9.10;99.90
4896;DHT22;2463;49.948;8.472;2023-01-09T14:41:24;9.10;99.90
4896;DHT22;2463;49.948;8.472;2023-01-09T14:50:36;9.00;99.90
4896;DHT22;2463;49.948;8.472;2023-01-09T14:53:09;9.00;99.90
4896;DHT22;2463;49.948;8.472;2023-01-09T14:56:00;8.90;99.90
4896;DHT22;2463;49.948;8.472;2023-01-09T14:58:29;8.90;99.90
4896;DHT22;2463;49.948;8.472;2023-01-09T15:01:04;8.80;99.90
4896;DHT22;2463;49.948;8.472;2023-01-09T15:06:04;8.80;99.90
4896;DHT22;2463;49.948;8.472;2023-01-09T15:08:32;8.70;99.90
4896;DHT22;2463;49.948;8.472;2023-01-09T15:10:59;8.70;99.90
4896;DHT22;2463;49.948;8.472;2023-01-09T15:13:33;8.70;99.90
4896;DHT22;2463;49.948;8.472;2023-01-09T15:16:04;8.60;99.90
4896;DHT22;2463;49.948;8.472;2023-01-09T15:18:39;8.60;99.90
4896;DHT22;2463;49.948;8.472;2023-01-09T15:21:16;8.60;99.90
4896;DHT22;2463;49.948;8.472;2023-01-09T15:23:44;8.60;99.90
4896;DHT22;2463;49.948;8.472;2023-01-09T15:26:24;8.50;99.90
4896;DHT22;2463;49.948;8.472;2023-01-09T15:28:53;8.50;99.90
4896;DHT22;2463;49.948;8.472;2023-01-09T15:31:25;8.50;99.90
4896;DHT22;2463;49.948;8.472;2023-01-09T15:33:52;8.50;99.90
4896;DHT22;2463;49.948;8.472;2023-01-09T15:36:22;8.40;99.90
4896;DHT22;2463;49.948;8.472;2023-01-09T15:38:50;8.50;99.90
4896;DHT22;2463;49.948;8.472;2023-01-09T15:41:26;8.40;99.90
4896;DHT22;2463;49.948;8.472;2023-01-09T15:44:18;8.40;99.90
4896;DHT22;2463;49.948;8.472;2023-01-09T15:46:47;8.40;99.90
4896;DHT22;2463;49.948;8.472;2023-01-09T15:49:16;8.40;99.90
4896;DHT22;2463;49.948;8.472;2023-01-09T15:51:45;8.40;99.90
4896;DHT22;2463;49.948;8.472;2023-01-09T15:54:18;8.40;99.90
4896;DHT22;2463;49.948;8.472;2023-01-09T15:56:46;8.40;99.90
4896;DHT22;2463;49.948;8.472;2023-01-09T15:59:25;8.40;99.90
4896;DHT22;2463;49.948;8.472;2023-01-09T16:01:58;8.40;99.90
4896;DHT22;2463;49.948;8.472;2023-01-09T16:04:46;8.40;99.90
4896;DHT22;2463;49.948;8.472;2023-01-09T16:07:15;8.40;99.90
4896;DHT22;2463;49.948;8.472;2023-01-09T16:09:45;8.40;99.90
4896;DHT22;2463;49.948;8.472;2023-01-09T16:12:25;8.40;99.90
4896;DHT22;2463;49.948;8.472;2023-01-09T16:14:54;8.40;99.90
4896;DHT22;2463;49.948;8.472;2023-01-09T16:17:22;8.30;99.90
4896;DHT22;2463;49.948;8.472;2023-01-09T16:20:11;8.30;99.90
4896;DHT22;2463;49.948;8.472;2023-01-09T16:22:55;8.30;99.90
4896;DHT22;2463;49.948;8.472;2023-01-09T16:25:31;8.30;99.90
4896;DHT22;2463;49.948;8.472;2023-01-09T16:28:15;8.30;99.90
4896;DHT22;2463;49.948;8.472;2023-01-09T16:33:23;8.20;99.90
4896;DHT22;2463;49.948;8.472;2023-01-09T16:35:51;8.20;99.90
4896;DHT22;2463;49.948;8.472;2023-01-09T16:38:19;8.20;99.90
4896;DHT22;2463;49.948;8.472;2023-01-09T16:43:39;8.10;99.90
4896;DHT22;2463;49.948;8.472;2023-01-09T16:46:05;8.20;99.90
4896;DHT22;2463;49.948;8.472;2023-01-09T16:48:32;8.20;99.90
4896;DHT22;2463;49.948;8.472;2023-01-09T16:50:59;8.20;99.90
4896;DHT22;2463;49.948;8.472;2023-01-09T16:53:26;8.20;99.90
4896;DHT22;2463;49.948;8.472;2023-01-09T16:55:57;8.10;99.90
4896;DHT22;2463;49.948;8.472;2023-01-09T16:58:27;8.10;99.90
4896;DHT22;2463;49.948;8.472;2023-01-09T17:00:54;8.10;99.90
4896;DHT22;2463;49.948;8.472;2023-01-09T17:03:21;8.10;99.90
4896;DHT22;2463;49.948;8.472;2023-01-09T17:05:50;8.00;99.90
4896;DHT22;2463;49.948;8.472;2023-01-09T17:08:26;8.00;99.90
4896;DHT22;2463;49.948;8.472;2023-01-09T17:10:54;8.00;99.90
4896;DHT22;2463;49.948;8.472;2023-01-09T17:13:22;8.00;99.90
4896;DHT22;2463;49.948;8.472;2023-01-09T17:15:53;8.00;99.90
4896;DHT22;2463;49.948;8.472;2023-01-09T17:18:24;8.00;99.90
4896;DHT22;2463;49.948;8.472;2023-01-09T17:20:53;8.10;99.90
4896;DHT22;2463;49.948;8.472;2023-01-09T17:23:20;8.10;99.90
4896;DHT22;2463;49.948;8.472;2023-01-09T17:25:48;8.00;99.90
4896;DHT22;2463;49.948;8.472;2023-01-09T17:28:35;8.00;99.90
4896;DHT22;2463;49.948;8.472;2023-01-09T17:31:05;8.00;99.90
4896;DHT22;2463;49.948;8.472;2023-01-09T17:33:32;7.90;99.90
4896;DHT22;2463;49.948;8.472;2023-01-09T17:36:01;7.90;99.90
4896;DHT22;2463;49.948;8.472;2023-01-09T17:38:28;7.90;99.90
4896;DHT22;2463;49.948;8.472;2023-01-09T17:40:55;7.90;99.90
4896;DHT22;2463;49.948;8.472;2023-01-09T17:43:22;7.90;99.90
4896;DHT22;2463;49.948;8.472;2023-01-09T17:45:48;7.80;99.90
4896;DHT22;2463;49.948;8.472;2023-01-09T17:48:20;7.90;99.90
4896;DHT22;2463;49.948;8.472;2023-01-09T17:50:48;7.90;99.90
4896;DHT22;2463;49.948;8.472;2023-01-09T17:53:15;7.80;99.90
4896;DHT22;2463;49.948;8.472;2023-01-09T17:55:43;7.80;99.90
4896;DHT22;2463;49.948;8.472;2023-01-09T17:58:23;7.80;99.90
4896;DHT22;2463;49.948;8.472;2023-01-09T18:00:50;7.80;99.90
4896;DHT22;2463;49.948;8.472;2023-01-09T18:03:17;7.80;99.90
4896;DHT22;2463;49.948;8.472;2023-01-09T18:05:46;7.80;99.90
4896;DHT22;2463;49.948;8.472;2023-01-09T18:08:12;7.80;99.90
4896;DHT22;2463;49.948;8.472;2023-01-09T18:10:39;7.80;99.90
4896;DHT22;2463;49.948;8.472;2023-01-09T18:13:08;7.80;99.90
4896;DHT22;2463;49.948;8.472;2023-01-09T18:15:36;7.80;99.90
4896;DHT22;2463;49.948;8.472;2023-01-09T18:18:04;7.80;99.90
4896;DHT22;2463;49.948;8.472;2023-01-09T18:20:31;7.80;99.90
4896;DHT22;2463;49.948;8.472;2023-01-09T18:22:58;7.80;99.90
4896;DHT22;2463;49.948;8.472;2023-01-09T18:25:24;7.80;99.90
4896;DHT22;2463;49.948;8.472;2023-01-09T18:27:51;7.70;99.90
4896;DHT22;2463;49.948;8.472;2023-01-09T18:30:18;7.70;99.90
4896;DHT22;2463;49.948;8.472;2023-01-09T18:32:45;7.70;99.90
4896;DHT22;2463;49.948;8.472;2023-01-09T18:35:11;7.60;99.90
4896;DHT22;2463;49.948;8.472;2023-01-09T18:37:38;7.60;99.90
4896;DHT22;2463;49.948;8.472;2023-01-09T18:40:05;7.50;99.90
4896;DHT22;2463;49.948;8.472;2023-01-09T18:42:32;7.50;99.90
4896;DHT22;2463;49.948;8.472;2023-01-09T18:44:58;7.50;99.90
4896;DHT22;2463;49.948;8.472;2023-01-09T18:47:25;7.40;99.90